This is the latest recevied weather packets stored in our database for station/object GW1469. If no packets are shown the sender has not sent any weather packets the latest 10 day(s).
| Time | Temp. | Humidity | Pressure | Rain* | Wind** | Luminosity | Snow |
|---|---|---|---|---|---|---|---|
| 1777780492 | 3.89° C | 90% | 1026.7 hPa | 0 mm | - | - | - |
| 1777779736 | 4.44° C | 88% | 1026.4 hPa | 0 mm | - | - | - |
| 1777777224 | 5.56° C | 82% | 1026.7 hPa | 0 mm | - | - | - |
| 1777775778 | 5.56° C | 79% | 1026.4 hPa | 0 mm | - | - | - |
| 1777771814 | 7.22° C | 73% | 1026 hPa | 0 mm | - | - | - |
| 1777769323 | 8.89° C | 65% | 1025.3 hPa | 0 mm | - | - | - |
| 1777767495 | 8.89° C | 63% | 1025 hPa | 0 mm | - | - | - |
| 1777765721 | 10° C | 53% | 1025 hPa | 0 mm | - | - | - |
| 1777763532 | 11.67° C | 49% | 1024.7 hPa | 0 mm | - | - | - |
| 1777758852 | 11.67° C | 51% | 1024.3 hPa | 0 mm | - | - | - |
| 1777755634 | 11.11° C | 47% | 1024.3 hPa | 0 mm | - | - | - |
| 1777751654 | 12.22° C | 44% | 1024.3 hPa | 0 mm | - | - | - |
| 1777750969 | 13.89° C | 41% | 1024.3 hPa | 0 mm | - | - | - |
| 1777746280 | 11.67° C | 45% | 1025 hPa | 0 mm | - | - | - |
| 1777745574 | 12.22° C | 46% | 1025 hPa | 0 mm | - | - | - |
| 1777737984 | 12.22° C | 45% | 1025.7 hPa | 0 mm | - | - | - |
| 1777735839 | 12.22° C | 49% | 1025.7 hPa | 0 mm | - | - | - |
| 1777735453 | 11.11° C | 48% | 1025.7 hPa | 0 mm | - | - | - |
| 1777734042 | 12.78° C | 48% | 1025.7 hPa | 0 mm | - | - | - |
| 1777732610 | 11.11° C | 53% | 1025.7 hPa | 0 mm | - | - | - |
| 1777727567 | 8.89° C | 67% | 1025.3 hPa | 0 mm | - | - | - |
| 1777726834 | 7.78° C | 73% | 1025.7 hPa | 0 mm | - | - | - |
| 1777723604 | 5.56° C | 90% | 1025.7 hPa | 0 mm | - | - | - |
| 1777722892 | 5° C | 93% | 1025.3 hPa | 0 mm | - | - | - |
| 1777722152 | 5° C | 94% | 1025.7 hPa | 0 mm | - | - | - |
* Rain since midnight (hover to see other rain measurements)
** Current wind speed in m/s (hover to see current wind gust speed)